sensor_id;sensor_type;location;lat;lon;timestamp;noise_LAeq;noise_LA_min;noise_LA_max;noise_LA01;noise_LA95
64077;Laerm;51039;49.696;10.808;2023-06-04T00:02:23;44.03;42.36;45.25;;
64077;Laerm;51039;49.696;10.808;2023-06-04T00:04:49;43.99;42.69;45.29;;
64077;Laerm;51039;49.696;10.808;2023-06-04T00:07:14;44.00;42.75;45.41;;
64077;Laerm;51039;49.696;10.808;2023-06-04T00:09:40;43.97;42.74;45.18;;
64077;Laerm;51039;49.696;10.808;2023-06-04T00:12:05;43.97;42.79;45.25;;
64077;Laerm;51039;49.696;10.808;2023-06-04T00:14:31;43.96;42.60;45.09;;
64077;Laerm;51039;49.696;10.808;2023-06-04T00:16:56;43.93;42.73;45.01;;
64077;Laerm;51039;49.696;10.808;2023-06-04T00:19:22;43.91;42.62;45.17;;
64077;Laerm;51039;49.696;10.808;2023-06-04T00:21:47;43.86;42.70;44.90;;
64077;Laerm;51039;49.696;10.808;2023-06-04T00:24:12;43.82;42.53;44.94;;
64077;Laerm;51039;49.696;10.808;2023-06-04T00:26:38;43.78;42.59;45.00;;
64077;Laerm;51039;49.696;10.808;2023-06-04T00:29:03;43.76;42.39;44.97;;
64077;Laerm;51039;49.696;10.808;2023-06-04T00:31:28;43.72;42.50;45.07;;
64077;Laerm;51039;49.696;10.808;2023-06-04T00:33:54;43.70;42.28;44.93;;
64077;Laerm;51039;49.696;10.808;2023-06-04T00:36:19;43.67;42.23;44.89;;
64077;Laerm;51039;49.696;10.808;2023-06-04T00:38:46;43.62;42.31;44.74;;
64077;Laerm;51039;49.696;10.808;2023-06-04T00:41:11;43.62;42.44;44.89;;
64077;Laerm;51039;49.696;10.808;2023-06-04T00:43:36;43.64;42.44;45.01;;
64077;Laerm;51039;49.696;10.808;2023-06-04T00:46:02;43.67;42.33;44.95;;
64077;Laerm;51039;49.696;10.808;2023-06-04T00:48:30;43.68;42.37;45.07;;
64077;Laerm;51039;49.696;10.808;2023-06-04T00:50:56;43.69;42.49;44.90;;
64077;Laerm;51039;49.696;10.808;2023-06-04T00:53:24;43.67;42.48;44.78;;
64077;Laerm;51039;49.696;10.808;2023-06-04T00:55:49;43.67;42.43;44.85;;
64077;Laerm;51039;49.696;10.808;2023-06-04T00:58:15;43.68;42.39;44.83;;
64077;Laerm;51039;49.696;10.808;2023-06-04T01:00:41;43.63;42.42;44.89;;
64077;Laerm;51039;49.696;10.808;2023-06-04T01:03:13;43.59;42.45;44.65;;
64077;Laerm;51039;49.696;10.808;2023-06-04T01:05:46;43.58;42.24;44.70;;
64077;Laerm;51039;49.696;10.808;2023-06-04T01:08:13;43.57;42.19;44.89;;
64077;Laerm;51039;49.696;10.808;2023-06-04T01:10:53;43.53;42.35;44.84;;
64077;Laerm;51039;49.696;10.808;2023-06-04T01:13:18;43.47;42.30;44.51;;
64077;Laerm;51039;49.696;10.808;2023-06-04T01:15:44;43.39;42.06;44.57;;
64077;Laerm;51039;49.696;10.808;2023-06-04T01:18:09;43.35;41.91;44.41;;
64077;Laerm;51039;49.696;10.808;2023-06-04T01:20:43;43.31;42.04;44.60;;
64077;Laerm;51039;49.696;10.808;2023-06-04T01:25:47;43.25;41.89;44.36;;
64077;Laerm;51039;49.696;10.808;2023-06-04T01:28:15;43.25;42.05;44.36;;
64077;Laerm;51039;49.696;10.808;2023-06-04T01:30:42;43.26;41.78;44.42;;
64077;Laerm;51039;49.696;10.808;2023-06-04T01:33:14;43.26;42.12;44.63;;
64077;Laerm;51039;49.696;10.808;2023-06-04T01:35:40;43.24;42.07;44.49;;
64077;Laerm;51039;49.696;10.808;2023-06-04T01:38:06;43.23;41.98;44.45;;
64077;Laerm;51039;49.696;10.808;2023-06-04T01:40:31;43.22;42.08;44.23;;
64077;Laerm;51039;49.696;10.808;2023-06-04T01:42:58;43.22;42.02;44.49;;
64077;Laerm;51039;49.696;10.808;2023-06-04T01:45:25;43.17;41.87;44.32;;
64077;Laerm;51039;49.696;10.808;2023-06-04T01:47:51;43.11;41.74;44.53;;
64077;Laerm;51039;49.696;10.808;2023-06-04T01:50:16;43.09;41.68;44.26;;
64077;Laerm;51039;49.696;10.808;2023-06-04T01:52:42;43.05;41.91;44.26;;
64077;Laerm;51039;49.696;10.808;2023-06-04T01:55:15;43.04;41.77;44.21;;
64077;Laerm;51039;49.696;10.808;2023-06-04T01:57:42;43.03;41.88;44.07;;
64077;Laerm;51039;49.696;10.808;2023-06-04T02:00:09;43.04;41.78;44.08;;
64077;Laerm;51039;49.696;10.808;2023-06-04T02:02:36;43.00;41.82;44.15;;
64077;Laerm;51039;49.696;10.808;2023-06-04T02:05:05;43.03;41.85;44.17;;
64077;Laerm;51039;49.696;10.808;2023-06-04T02:07:34;43.01;41.78;44.17;;
64077;Laerm;51039;49.696;10.808;2023-06-04T02:10:00;43.02;41.89;44.36;;
64077;Laerm;51039;49.696;10.808;2023-06-04T02:12:25;43.00;41.75;44.33;;
64077;Laerm;51039;49.696;10.808;2023-06-04T02:14:51;42.98;41.83;44.14;;
64077;Laerm;51039;49.696;10.808;2023-06-04T02:17:16;42.95;41.89;44.25;;
64077;Laerm;51039;49.696;10.808;2023-06-04T02:19:43;42.91;41.72;44.42;;
64077;Laerm;51039;49.696;10.808;2023-06-04T02:22:13;42.86;41.71;44.25;;
64077;Laerm;51039;49.696;10.808;2023-06-04T02:24:39;42.84;41.72;43.94;;
64077;Laerm;51039;49.696;10.808;2023-06-04T02:27:07;42.83;41.43;44.06;;
64077;Laerm;51039;49.696;10.808;2023-06-04T02:29:33;42.81;41.46;43.93;;
64077;Laerm;51039;49.696;10.808;2023-06-04T02:31:58;42.78;41.50;43.83;;
64077;Laerm;51039;49.696;10.808;2023-06-04T02:34:23;42.76;41.53;43.98;;
64077;Laerm;51039;49.696;10.808;2023-06-04T02:36:50;42.75;41.52;43.90;;
64077;Laerm;51039;49.696;10.808;2023-06-04T02:39:20;42.73;41.39;43.84;;
64077;Laerm;51039;49.696;10.808;2023-06-04T02:41:45;42.72;41.37;44.00;;
64077;Laerm;51039;49.696;10.808;2023-06-04T02:44:11;42.69;41.51;43.70;;
64077;Laerm;51039;49.696;10.808;2023-06-04T02:46:37;42.71;41.48;43.88;;
64077;Laerm;51039;49.696;10.808;2023-06-04T02:49:03;42.68;41.50;43.82;;
64077;Laerm;51039;49.696;10.808;2023-06-04T02:51:28;42.64;41.24;44.25;;
64077;Laerm;51039;49.696;10.808;2023-06-04T02:53:54;42.66;41.42;43.67;;
64077;Laerm;51039;49.696;10.808;2023-06-04T02:56:19;42.64;41.40;43.81;;
64077;Laerm;51039;49.696;10.808;2023-06-04T02:58:52;42.64;41.38;43.85;;
64077;Laerm;51039;49.696;10.808;2023-06-04T03:01:23;42.64;41.42;43.83;;
64077;Laerm;51039;49.696;10.808;2023-06-04T03:03:49;42.67;41.39;43.74;;
64077;Laerm;51039;49.696;10.808;2023-06-04T03:06:15;42.68;41.55;43.70;;
64077;Laerm;51039;49.696;10.808;2023-06-04T03:08:41;42.66;41.41;43.68;;
64077;Laerm;51039;49.696;10.808;2023-06-04T03:11:07;42.68;41.37;43.77;;
64077;Laerm;51039;49.696;10.808;2023-06-04T03:13:32;42.66;41.42;44.05;;
64077;Laerm;51039;49.696;10.808;2023-06-04T03:15:57;42.64;41.43;44.02;;
64077;Laerm;51039;49.696;10.808;2023-06-04T03:18:26;42.64;41.16;43.73;;
64077;Laerm;51039;49.696;10.808;2023-06-04T03:20:51;42.64;41.38;43.85;;
64077;Laerm;51039;49.696;10.808;2023-06-04T03:23:18;42.77;41.60;43.94;;
64077;Laerm;51039;49.696;10.808;2023-06-04T03:25:43;42.99;41.68;44.12;;
64077;Laerm;51039;49.696;10.808;2023-06-04T03:28:08;43.09;41.89;44.28;;
64077;Laerm;51039;49.696;10.808;2023-06-04T03:30:34;43.23;41.96;44.35;;
64077;Laerm;51039;49.696;10.808;2023-06-04T03:32:59;43.41;42.13;44.54;;
64077;Laerm;51039;49.696;10.808;2023-06-04T03:35:25;43.54;42.12;44.61;;
64077;Laerm;51039;49.696;10.808;2023-06-04T03:37:50;43.63;41.97;44.76;;
64077;Laerm;51039;49.696;10.808;2023-06-04T03:40:15;43.70;42.23;44.88;;
64077;Laerm;51039;49.696;10.808;2023-06-04T03:42:41;43.77;42.53;45.11;;
64077;Laerm;51039;49.696;10.808;2023-06-04T03:45:07;43.83;42.52;45.27;;
64077;Laerm;51039;49.696;10.808;2023-06-04T03:47:32;43.89;42.43;44.97;;
64077;Laerm;51039;49.696;10.808;2023-06-04T03:49:58;43.97;42.55;45.21;;
64077;Laerm;51039;49.696;10.808;2023-06-04T03:52:23;44.06;42.80;45.19;;
64077;Laerm;51039;49.696;10.808;2023-06-04T03:54:48;44.14;42.84;45.42;;
64077;Laerm;51039;49.696;10.808;2023-06-04T03:57:13;44.21;43.09;45.47;;
64077;Laerm;51039;49.696;10.808;2023-06-04T03:59:39;44.26;43.04;45.45;;
64077;Laerm;51039;49.696;10.808;2023-06-04T04:02:04;44.33;42.93;45.59;;
64077;Laerm;51039;49.696;10.808;2023-06-04T04:04:30;44.42;43.10;45.53;;
64077;Laerm;51039;49.696;10.808;2023-06-04T04:06:55;44.52;43.14;45.62;;
64077;Laerm;51039;49.696;10.808;2023-06-04T04:09:21;44.58;43.18;45.71;;
64077;Laerm;51039;49.696;10.808;2023-06-04T04:11:46;44.65;43.25;45.98;;
64077;Laerm;51039;49.696;10.808;2023-06-04T04:14:11;44.73;43.11;45.85;;
64077;Laerm;51039;49.696;10.808;2023-06-04T04:16:36;44.77;43.41;45.94;;
64077;Laerm;51039;49.696;10.808;2023-06-04T04:19:02;44.81;43.34;46.14;;
64077;Laerm;51039;49.696;10.808;2023-06-04T04:21:27;44.84;43.67;46.01;;
64077;Laerm;51039;49.696;10.808;2023-06-04T04:23:52;44.87;43.23;46.08;;
64077;Laerm;51039;49.696;10.808;2023-06-04T04:26:17;44.90;43.52;46.05;;
64077;Laerm;51039;49.696;10.808;2023-06-04T04:28:43;44.93;43.60;46.15;;
64077;Laerm;51039;49.696;10.808;2023-06-04T04:31:08;44.94;43.63;46.06;;
64077;Laerm;51039;49.696;10.808;2023-06-04T04:33:36;44.97;43.48;46.30;;
64077;Laerm;51039;49.696;10.808;2023-06-04T04:36:05;44.97;43.59;46.41;;
64077;Laerm;51039;49.696;10.808;2023-06-04T04:38:30;44.99;43.77;46.19;;
64077;Laerm;51039;49.696;10.808;2023-06-04T04:40:59;44.95;43.62;46.17;;
64077;Laerm;51039;49.696;10.808;2023-06-04T04:43:33;44.90;43.59;46.32;;
64077;Laerm;51039;49.696;10.808;2023-06-04T04:45:58;44.83;43.54;46.25;;
64077;Laerm;51039;49.696;10.808;2023-06-04T04:48:24;44.80;43.53;46.23;;
64077;Laerm;51039;49.696;10.808;2023-06-04T04:50:50;44.78;43.50;45.93;;
64077;Laerm;51039;49.696;10.808;2023-06-04T04:53:16;44.80;43.38;46.21;;
64077;Laerm;51039;49.696;10.808;2023-06-04T04:55:41;44.80;43.34;46.10;;
64077;Laerm;51039;49.696;10.808;2023-06-04T04:58:06;44.81;43.13;46.11;;
64077;Laerm;51039;49.696;10.808;2023-06-04T05:00:32;44.74;43.25;45.98;;
64077;Laerm;51039;49.696;10.808;2023-06-04T05:02:57;44.64;43.26;46.05;;
64077;Laerm;51039;49.696;10.808;2023-06-04T05:05:22;44.58;43.19;45.81;;
64077;Laerm;51039;49.696;10.808;2023-06-04T05:07:48;44.53;43.24;45.76;;
64077;Laerm;51039;49.696;10.808;2023-06-04T05:10:13;44.51;43.04;45.84;;
64077;Laerm;51039;49.696;10.808;2023-06-04T05:12:38;44.39;42.77;45.68;;
64077;Laerm;51039;49.696;10.808;2023-06-04T05:15:04;44.42;43.16;45.68;;
64077;Laerm;51039;49.696;10.808;2023-06-04T05:17:30;44.35;42.93;45.58;;
64077;Laerm;51039;49.696;10.808;2023-06-04T05:19:58;44.32;42.89;45.74;;
64077;Laerm;51039;49.696;10.808;2023-06-04T05:22:29;44.22;42.82;45.86;;
64077;Laerm;51039;49.696;10.808;2023-06-04T05:24:57;44.12;42.69;45.51;;
64077;Laerm;51039;49.696;10.808;2023-06-04T05:27:24;44.03;42.38;45.66;;
64077;Laerm;51039;49.696;10.808;2023-06-04T05:29:49;44.12;42.67;45.44;;
64077;Laerm;51039;49.696;10.808;2023-06-04T05:32:15;44.09;42.69;45.43;;
64077;Laerm;51039;49.696;10.808;2023-06-04T05:34:41;44.01;42.58;45.27;;
64077;Laerm;51039;49.696;10.808;2023-06-04T05:37:06;43.98;42.50;45.28;;
64077;Laerm;51039;49.696;10.808;2023-06-04T05:39:33;43.97;42.51;45.20;;
64077;Laerm;51039;49.696;10.808;2023-06-04T05:41:59;44.03;42.69;45.38;;
64077;Laerm;51039;49.696;10.808;2023-06-04T05:44:25;44.02;42.50;45.25;;
64077;Laerm;51039;49.696;10.808;2023-06-04T05:46:50;43.91;42.54;45.14;;
64077;Laerm;51039;49.696;10.808;2023-06-04T05:49:16;43.95;42.49;45.47;;
64077;Laerm;51039;49.696;10.808;2023-06-04T05:51:42;43.93;42.42;45.34;;
64077;Laerm;51039;49.696;10.808;2023-06-04T05:54:07;43.89;42.23;45.31;;
64077;Laerm;51039;49.696;10.808;2023-06-04T05:56:32;43.79;41.88;45.13;;
64077;Laerm;51039;49.696;10.808;2023-06-04T05:58:58;43.50;41.80;44.68;;
64077;Laerm;51039;49.696;10.808;2023-06-04T06:01:23;43.32;41.86;44.78;;
64077;Laerm;51039;49.696;10.808;2023-06-04T06:03:48;43.22;41.62;44.80;;
64077;Laerm;51039;49.696;10.808;2023-06-04T06:06:14;43.07;41.38;44.62;;
64077;Laerm;51039;49.696;10.808;2023-06-04T06:08:39;43.05;41.46;44.51;;
64077;Laerm;51039;49.696;10.808;2023-06-04T06:11:05;43.04;41.60;44.48;;
64077;Laerm;51039;49.696;10.808;2023-06-04T06:13:30;43.09;41.42;44.41;;
64077;Laerm;51039;49.696;10.808;2023-06-04T06:15:56;43.19;41.79;44.44;;
64077;Laerm;51039;49.696;10.808;2023-06-04T06:18:22;43.12;41.68;44.44;;
64077;Laerm;51039;49.696;10.808;2023-06-04T06:20:47;43.27;41.98;44.66;;
64077;Laerm;51039;49.696;10.808;2023-06-04T06:23:13;43.38;41.94;44.71;;
64077;Laerm;51039;49.696;10.808;2023-06-04T06:25:39;43.44;42.06;44.56;;
64077;Laerm;51039;49.696;10.808;2023-06-04T06:28:10;43.39;42.08;44.76;;
64077;Laerm;51039;49.696;10.808;2023-06-04T06:30:36;43.36;41.89;44.78;;
64077;Laerm;51039;49.696;10.808;2023-06-04T06:33:01;43.49;42.03;44.90;;
64077;Laerm;51039;49.696;10.808;2023-06-04T06:35:26;43.45;42.13;44.89;;
64077;Laerm;51039;49.696;10.808;2023-06-04T06:37:52;43.39;41.93;44.76;;
64077;Laerm;51039;49.696;10.808;2023-06-04T06:40:17;43.44;42.10;44.84;;
64077;Laerm;51039;49.696;10.808;2023-06-04T06:42:47;43.34;41.99;44.60;;
64077;Laerm;51039;49.696;10.808;2023-06-04T06:45:12;43.24;41.76;44.56;;
64077;Laerm;51039;49.696;10.808;2023-06-04T06:47:37;43.03;41.56;44.45;;
64077;Laerm;51039;49.696;10.808;2023-06-04T06:50:03;42.83;41.37;44.36;;
64077;Laerm;51039;49.696;10.808;2023-06-04T06:52:28;42.76;41.04;44.39;;
64077;Laerm;51039;49.696;10.808;2023-06-04T06:54:54;42.92;41.61;44.08;;
64077;Laerm;51039;49.696;10.808;2023-06-04T06:57:19;42.99;41.61;44.31;;
64077;Laerm;51039;49.696;10.808;2023-06-04T06:59:44;43.01;41.60;44.57;;
64077;Laerm;51039;49.696;10.808;2023-06-04T07:02:09;42.96;41.42;44.27;;
64077;Laerm;51039;49.696;10.808;2023-06-04T07:04:35;43.07;41.77;44.38;;
64077;Laerm;51039;49.696;10.808;2023-06-04T07:07:01;43.01;41.59;44.56;;
64077;Laerm;51039;49.696;10.808;2023-06-04T07:09:26;42.89;41.46;44.28;;
64077;Laerm;51039;49.696;10.808;2023-06-04T07:11:51;42.93;41.48;44.38;;
64077;Laerm;51039;49.696;10.808;2023-06-04T07:14:17;42.97;41.20;44.31;;
64077;Laerm;51039;49.696;10.808;2023-06-04T07:16:42;42.95;41.50;44.33;;
64077;Laerm;51039;49.696;10.808;2023-06-04T07:19:07;42.97;41.26;44.73;;
64077;Laerm;51039;49.696;10.808;2023-06-04T07:21:32;42.74;41.25;44.00;;
64077;Laerm;51039;49.696;10.808;2023-06-04T07:23:58;42.73;41.07;44.16;;
64077;Laerm;51039;49.696;10.808;2023-06-04T07:26:23;42.76;41.17;44.28;;
64077;Laerm;51039;49.696;10.808;2023-06-04T07:28:50;42.87;41.48;44.23;;
64077;Laerm;51039;49.696;10.808;2023-06-04T07:31:16;42.75;41.23;44.25;;
64077;Laerm;51039;49.696;10.808;2023-06-04T07:33:42;42.65;40.92;43.85;;
64077;Laerm;51039;49.696;10.808;2023-06-04T07:36:12;42.60;41.15;43.97;;
64077;Laerm;51039;49.696;10.808;2023-06-04T07:38:38;42.81;41.30;44.11;;
64077;Laerm;51039;49.696;10.808;2023-06-04T07:41:03;42.76;40.53;44.41;;
64077;Laerm;51039;49.696;10.808;2023-06-04T07:43:28;42.60;41.21;43.92;;
64077;Laerm;51039;49.696;10.808;2023-06-04T07:45:54;42.62;41.28;44.01;;
64077;Laerm;51039;49.696;10.808;2023-06-04T07:48:19;42.68;41.15;44.03;;
64077;Laerm;51039;49.696;10.808;2023-06-04T07:50:44;42.75;41.41;44.08;;
64077;Laerm;51039;49.696;10.808;2023-06-04T07:53:10;42.62;41.33;43.94;;
64077;Laerm;51039;49.696;10.808;2023-06-04T07:55:35;42.68;40.93;44.23;;
64077;Laerm;51039;49.696;10.808;2023-06-04T07:58:00;42.97;41.37;44.32;;
64077;Laerm;51039;49.696;10.808;2023-06-04T08:00:25;42.95;41.57;44.24;;
64077;Laerm;51039;49.696;10.808;2023-06-04T08:02:51;43.05;41.40;44.29;;
64077;Laerm;51039;49.696;10.808;2023-06-04T08:05:17;43.00;41.47;44.31;;
64077;Laerm;51039;49.696;10.808;2023-06-04T08:07:42;42.88;41.19;44.39;;
64077;Laerm;51039;49.696;10.808;2023-06-04T08:10:09;42.79;41.20;44.20;;
64077;Laerm;51039;49.696;10.808;2023-06-04T08:12:34;42.80;41.46;44.11;;
64077;Laerm;51039;49.696;10.808;2023-06-04T08:15:00;42.74;41.16;44.11;;
64077;Laerm;51039;49.696;10.808;2023-06-04T08:17:25;42.50;40.96;43.98;;
64077;Laerm;51039;49.696;10.808;2023-06-04T08:19:51;42.50;41.08;43.88;;
64077;Laerm;51039;49.696;10.808;2023-06-04T08:22:16;42.45;40.88;43.93;;
64077;Laerm;51039;49.696;10.808;2023-06-04T08:24:41;42.40;40.77;43.73;;
64077;Laerm;51039;49.696;10.808;2023-06-04T08:27:07;42.41;41.02;43.82;;
64077;Laerm;51039;49.696;10.808;2023-06-04T08:29:34;42.41;40.89;43.67;;
64077;Laerm;51039;49.696;10.808;2023-06-04T08:32:00;42.37;40.87;43.67;;
64077;Laerm;51039;49.696;10.808;2023-06-04T08:34:26;42.44;40.68;43.93;;
64077;Laerm;51039;49.696;10.808;2023-06-04T08:36:51;42.40;41.02;43.85;;
64077;Laerm;51039;49.696;10.808;2023-06-04T08:39:16;42.37;40.72;43.98;;
64077;Laerm;51039;49.696;10.808;2023-06-04T08:41:44;42.24;40.83;43.74;;
64077;Laerm;51039;49.696;10.808;2023-06-04T08:44:10;42.17;40.78;43.50;;
64077;Laerm;51039;49.696;10.808;2023-06-04T08:46:39;42.11;40.61;43.54;;
64077;Laerm;51039;49.696;10.808;2023-06-04T08:49:06;42.13;40.67;43.41;;
64077;Laerm;51039;49.696;10.808;2023-06-04T08:51:33;42.01;40.53;43.47;;
64077;Laerm;51039;49.696;10.808;2023-06-04T08:53:59;42.03;40.56;43.39;;
64077;Laerm;51039;49.696;10.808;2023-06-04T08:56:25;42.10;40.68;43.60;;
64077;Laerm;51039;49.696;10.808;2023-06-04T08:58:51;42.14;40.60;43.46;;
64077;Laerm;51039;49.696;10.808;2023-06-04T09:01:17;42.10;40.77;43.42;;
64077;Laerm;51039;49.696;10.808;2023-06-04T09:03:43;42.10;40.46;43.61;;
64077;Laerm;51039;49.696;10.808;2023-06-04T09:06:08;42.18;40.72;43.60;;
64077;Laerm;51039;49.696;10.808;2023-06-04T09:08:38;42.13;40.66;43.61;;
64077;Laerm;51039;49.696;10.808;2023-06-04T09:11:05;42.27;40.76;43.53;;
64077;Laerm;51039;49.696;10.808;2023-06-04T09:13:33;42.26;40.80;43.97;;
64077;Laerm;51039;49.696;10.808;2023-06-04T09:16:03;42.26;40.93;43.58;;
64077;Laerm;51039;49.696;10.808;2023-06-04T09:18:29;42.50;41.13;43.78;;
64077;Laerm;51039;49.696;10.808;2023-06-04T09:21:05;42.49;40.70;44.00;;
64077;Laerm;51039;49.696;10.808;2023-06-04T09:23:34;42.55;40.84;43.85;;
64077;Laerm;51039;49.696;10.808;2023-06-04T09:26:07;42.76;41.40;44.23;;
64077;Laerm;51039;49.696;10.808;2023-06-04T09:28:33;42.71;41.33;44.25;;
64077;Laerm;51039;49.696;10.808;2023-06-04T09:30:59;42.37;40.90;43.77;;
64077;Laerm;51039;49.696;10.808;2023-06-04T09:33:24;42.19;40.78;43.51;;
64077;Laerm;51039;49.696;10.808;2023-06-04T09:35:55;41.99;40.60;43.28;;
64077;Laerm;51039;49.696;10.808;2023-06-04T09:38:21;42.19;40.33;43.58;;
64077;Laerm;51039;49.696;10.808;2023-06-04T09:40:47;42.42;40.83;43.80;;
64077;Laerm;51039;49.696;10.808;2023-06-04T09:43:21;42.57;41.19;43.88;;
64077;Laerm;51039;49.696;10.808;2023-06-04T09:45:47;42.59;40.58;44.12;;
64077;Laerm;51039;49.696;10.808;2023-06-04T09:48:19;42.16;40.78;43.47;;
64077;Laerm;51039;49.696;10.808;2023-06-04T09:50:45;42.01;40.70;43.40;;
64077;Laerm;51039;49.696;10.808;2023-06-04T09:53:20;41.95;40.57;43.47;;
64077;Laerm;51039;49.696;10.808;2023-06-04T09:56:02;41.82;40.26;43.23;;
64077;Laerm;51039;49.696;10.808;2023-06-04T09:58:29;41.96;40.37;46.14;;
64077;Laerm;51039;49.696;10.808;2023-06-04T10:00:56;42.11;40.67;43.65;;
64077;Laerm;51039;49.696;10.808;2023-06-04T10:03:33;41.97;40.46;43.29;;
64077;Laerm;51039;49.696;10.808;2023-06-04T10:05:59;42.12;40.46;43.40;;
64077;Laerm;51039;49.696;10.808;2023-06-04T10:08:26;42.36;40.95;43.91;;
64077;Laerm;51039;49.696;10.808;2023-06-04T10:10:56;42.16;40.68;48.39;;
64077;Laerm;51039;49.696;10.808;2023-06-04T10:13:24;41.96;40.30;43.61;;
64077;Laerm;51039;49.696;10.808;2023-06-04T10:15:52;41.64;40.23;42.87;;
64077;Laerm;51039;49.696;10.808;2023-06-04T10:18:18;41.57;40.18;42.93;;
64077;Laerm;51039;49.696;10.808;2023-06-04T10:20:44;41.78;40.21;43.30;;
64077;Laerm;51039;49.696;10.808;2023-06-04T10:23:10;41.89;40.33;43.30;;
64077;Laerm;51039;49.696;10.808;2023-06-04T10:25:36;42.19;40.59;43.51;;
64077;Laerm;51039;49.696;10.808;2023-06-04T10:28:02;42.04;40.62;43.56;;
64077;Laerm;51039;49.696;10.808;2023-06-04T10:30:31;41.75;40.37;43.12;;
64077;Laerm;51039;49.696;10.808;2023-06-04T10:32:57;41.98;40.49;43.63;;
64077;Laerm;51039;49.696;10.808;2023-06-04T10:35:33;41.98;40.44;43.33;;
64077;Laerm;51039;49.696;10.808;2023-06-04T10:38:10;41.57;39.99;42.80;;
64077;Laerm;51039;49.696;10.808;2023-06-04T10:40:37;41.11;39.65;42.65;;
64077;Laerm;51039;49.696;10.808;2023-06-04T10:43:10;40.99;39.63;42.41;;
64077;Laerm;51039;49.696;10.808;2023-06-04T10:45:36;41.00;39.49;42.25;;
64077;Laerm;51039;49.696;10.808;2023-06-04T10:48:03;40.95;39.52;42.28;;
64077;Laerm;51039;49.696;10.808;2023-06-04T10:50:28;40.76;39.42;42.11;;
64077;Laerm;51039;49.696;10.808;2023-06-04T10:52:55;40.76;39.41;42.04;;
64077;Laerm;51039;49.696;10.808;2023-06-04T10:55:21;40.91;39.49;42.29;;
64077;Laerm;51039;49.696;10.808;2023-06-04T10:57:53;40.96;39.60;42.35;;
64077;Laerm;51039;49.696;10.808;2023-06-04T11:00:19;41.07;39.13;42.40;;
64077;Laerm;51039;49.696;10.808;2023-06-04T11:02:52;41.02;39.57;42.52;;
64077;Laerm;51039;49.696;10.808;2023-06-04T11:05:17;41.00;39.44;42.20;;
64077;Laerm;51039;49.696;10.808;2023-06-04T11:07:45;41.05;39.64;42.32;;
64077;Laerm;51039;49.696;10.808;2023-06-04T11:10:12;41.11;39.57;42.35;;
64077;Laerm;51039;49.696;10.808;2023-06-04T11:12:55;41.08;39.84;42.68;;
64077;Laerm;51039;49.696;10.808;2023-06-04T11:15:21;41.15;39.90;42.50;;
64077;Laerm;51039;49.696;10.808;2023-06-04T11:17:54;41.20;39.87;42.56;;
64077;Laerm;51039;49.696;10.808;2023-06-04T11:20:21;41.18;39.72;42.55;;
64077;Laerm;51039;49.696;10.808;2023-06-04T11:22:51;41.24;39.93;42.64;;
64077;Laerm;51039;49.696;10.808;2023-06-04T11:25:17;41.27;39.81;42.55;;
64077;Laerm;51039;49.696;10.808;2023-06-04T11:27:42;41.25;39.53;42.62;;
64077;Laerm;51039;49.696;10.808;2023-06-04T11:30:08;41.24;39.71;42.75;;
64077;Laerm;51039;49.696;10.808;2023-06-04T11:32:33;41.22;39.82;42.85;;
64077;Laerm;51039;49.696;10.808;2023-06-04T11:35:03;41.21;39.74;42.68;;
64077;Laerm;51039;49.696;10.808;2023-06-04T11:37:30;41.25;39.80;42.80;;
64077;Laerm;51039;49.696;10.808;2023-06-04T11:39:57;41.36;39.91;42.60;;
64077;Laerm;51039;49.696;10.808;2023-06-04T11:42:23;41.40;40.03;42.71;;
64077;Laerm;51039;49.696;10.808;2023-06-04T11:44:48;41.30;39.98;42.79;;
64077;Laerm;51039;49.696;10.808;2023-06-04T11:47:14;41.28;39.83;42.57;;
64077;Laerm;51039;49.696;10.808;2023-06-04T11:49:40;41.28;39.74;42.64;;
64077;Laerm;51039;49.696;10.808;2023-06-04T11:52:08;41.35;39.96;42.72;;
64077;Laerm;51039;49.696;10.808;2023-06-04T11:54:33;41.43;39.99;42.87;;
64077;Laerm;51039;49.696;10.808;2023-06-04T11:57:03;41.32;40.07;42.73;;
64077;Laerm;51039;49.696;10.808;2023-06-04T11:59:30;41.30;39.70;42.57;;
64077;Laerm;51039;49.696;10.808;2023-06-04T12:01:56;41.34;40.10;42.80;;
64077;Laerm;51039;49.696;10.808;2023-06-04T12:04:22;41.35;39.43;42.61;;
64077;Laerm;51039;49.696;10.808;2023-06-04T12:06:52;41.35;39.63;42.71;;
64077;Laerm;51039;49.696;10.808;2023-06-04T12:09:23;41.32;39.90;42.63;;
64077;Laerm;51039;49.696;10.808;2023-06-04T12:11:49;41.32;39.96;42.54;;
64077;Laerm;51039;49.696;10.808;2023-06-04T12:14:18;41.33;39.71;42.84;;
64077;Laerm;51039;49.696;10.808;2023-06-04T12:16:58;41.35;39.77;42.85;;
64077;Laerm;51039;49.696;10.808;2023-06-04T12:19:25;41.42;40.07;42.67;;
64077;Laerm;51039;49.696;10.808;2023-06-04T12:22:01;41.50;40.08;42.75;;
64077;Laerm;51039;49.696;10.808;2023-06-04T12:24:27;41.47;40.19;42.76;;
64077;Laerm;51039;49.696;10.808;2023-06-04T12:27:09;41.48;39.89;42.73;;
64077;Laerm;51039;49.696;10.808;2023-06-04T12:29:34;41.53;39.93;42.83;;
64077;Laerm;51039;49.696;10.808;2023-06-04T12:32:05;41.40;39.78;42.72;;
64077;Laerm;51039;49.696;10.808;2023-06-04T12:34:33;41.39;39.83;42.68;;
64077;Laerm;51039;49.696;10.808;2023-06-04T12:36:58;41.34;39.75;42.91;;
64077;Laerm;51039;49.696;10.808;2023-06-04T12:39:23;41.29;39.96;42.77;;
64077;Laerm;51039;49.696;10.808;2023-06-04T12:41:49;41.33;39.72;42.77;;
64077;Laerm;51039;49.696;10.808;2023-06-04T12:44:14;41.33;39.85;42.93;;
64077;Laerm;51039;49.696;10.808;2023-06-04T12:46:40;41.32;39.82;42.69;;
64077;Laerm;51039;49.696;10.808;2023-06-04T12:49:05;41.29;39.93;42.77;;
64077;Laerm;51039;49.696;10.808;2023-06-04T12:51:31;41.30;39.78;42.70;;
64077;Laerm;51039;49.696;10.808;2023-06-04T12:53:57;41.30;39.76;42.72;;
64077;Laerm;51039;49.696;10.808;2023-06-04T12:56:23;41.31;39.92;42.78;;
64077;Laerm;51039;49.696;10.808;2023-06-04T12:58:48;41.39;40.01;42.73;;
64077;Laerm;51039;49.696;10.808;2023-06-04T13:01:14;41.37;39.89;42.73;;
64077;Laerm;51039;49.696;10.808;2023-06-04T13:03:40;41.37;39.94;42.89;;
64077;Laerm;51039;49.696;10.808;2023-06-04T13:06:05;41.42;39.99;42.92;;
64077;Laerm;51039;49.696;10.808;2023-06-04T13:08:31;41.41;40.05;42.68;;
64077;Laerm;51039;49.696;10.808;2023-06-04T13:10:57;41.35;39.79;42.75;;
64077;Laerm;51039;49.696;10.808;2023-06-04T13:13:22;41.36;39.84;42.61;;
64077;Laerm;51039;49.696;10.808;2023-06-04T13:15:48;41.41;40.07;42.62;;
64077;Laerm;51039;49.696;10.808;2023-06-04T13:18:13;41.44;40.07;42.93;;
64077;Laerm;51039;49.696;10.808;2023-06-04T13:20:42;41.42;40.12;42.87;;
64077;Laerm;51039;49.696;10.808;2023-06-04T13:23:08;41.41;39.86;42.81;;
64077;Laerm;51039;49.696;10.808;2023-06-04T13:25:33;41.34;39.72;42.90;;
64077;Laerm;51039;49.696;10.808;2023-06-04T13:28:03;41.30;39.85;42.45;;
64077;Laerm;51039;49.696;10.808;2023-06-04T13:30:28;41.31;39.98;42.70;;
64077;Laerm;51039;49.696;10.808;2023-06-04T13:32:53;41.24;39.88;42.50;;